Time;durP1;ratioP1;P1;durP2;ratioP2;P2;SDS_P1;SDS_P2;PMS_P1;PMS_P2;Temp;Humidity;BMP_temperature;BMP_pressure;BME280_temperature;BME280_humidity;BME280_pressure;Samples;Min_cycle;Max_cycle;Signal;HPM_P1;HPM_P2
2024/02/07 00:01:12;;;;;;;8.47;2.90;;;7.90;99.90;;;;;;4415301;28;656905;-75
2024/02/07 00:04:00;;;;;;;4.05;1.60;;;8.00;99.90;;;;;;4440822;28;657472;-73
2024/02/07 00:06:47;;;;;;;5.22;1.73;;;7.90;99.90;;;;;;4417423;28;656731;-73
2024/02/07 00:09:35;;;;;;;6.43;1.97;;;7.90;99.90;;;;;;4432193;28;657000;-72
2024/02/07 00:12:24;;;;;;;4.33;1.30;;;7.80;99.90;;;;;;4431799;28;656437;-73
2024/02/07 00:15:11;;;;;;;9.47;2.37;;;7.90;99.90;;;;;;4436387;28;656113;-73
2024/02/07 00:17:59;;;;;;;7.40;2.10;;;7.90;99.90;;;;;;4413206;28;656946;-74
2024/02/07 00:20:46;;;;;;;5.40;1.80;;;7.90;99.90;;;;;;4434554;28;656813;-73
2024/02/07 00:23:33;;;;;;;6.80;2.43;;;7.90;99.90;;;;;;4404169;28;656417;-73
2024/02/07 00:26:20;;;;;;;6.63;2.23;;;7.90;99.90;;;;;;4434870;28;657113;-73
2024/02/07 00:29:09;;;;;;;9.17;2.00;;;7.90;99.90;;;;;;4413081;28;656685;-73
2024/02/07 00:31:56;;;;;;;6.73;2.00;;;7.90;99.90;;;;;;4431773;28;655815;-73
2024/02/07 00:34:43;;;;;;;8.43;1.90;;;7.90;99.90;;;;;;4404723;28;656391;-73
2024/02/07 00:37:30;;;;;;;10.32;2.90;;;7.90;99.90;;;;;;4435219;28;656979;-72
2024/02/07 00:40:18;;;;;;;7.00;2.60;;;7.90;99.90;;;;;;4411707;28;657735;-73
2024/02/07 00:43:05;;;;;;;6.47;2.50;;;7.90;99.90;;;;;;4442329;28;657290;-74
2024/02/07 00:45:54;;;;;;;5.70;2.13;;;7.90;99.90;;;;;;4414585;28;656787;-72
2024/02/07 00:48:41;;;;;;;5.53;2.17;;;7.90;99.90;;;;;;4443741;28;656324;-74
2024/02/07 00:51:28;;;;;;;8.07;2.30;;;7.90;99.90;;;;;;4420750;28;656863;-74
2024/02/07 00:54:15;;;;;;;5.70;1.70;;;7.90;99.90;;;;;;4427726;28;657275;-73
2024/02/07 00:57:03;;;;;;;1.90;0.97;;;7.90;99.90;;;;;;4395069;28;656257;-74
2024/02/07 00:59:50;;;;;;;9.23;2.63;;;7.90;99.90;;;;;;4419616;28;657513;-73
2024/02/07 01:02:39;;;;;;;11.70;2.83;;;7.90;99.90;;;;;;4419745;28;656650;-73
2024/02/07 01:05:27;;;;;;;4.17;1.60;;;7.90;99.90;;;;;;4439776;28;656831;-74
2024/02/07 01:08:15;;;;;;;7.40;2.13;;;7.80;99.90;;;;;;4405906;28;657102;-75
2024/02/07 01:11:02;;;;;;;5.23;2.47;;;7.90;99.90;;;;;;4421148;28;656277;-73
2024/02/07 01:13:51;;;;;;;4.90;2.00;;;7.90;99.90;;;;;;4415172;28;656541;-74
2024/02/07 01:16:38;;;;;;;5.00;1.40;;;7.90;99.90;;;;;;4406454;28;657417;-73
2024/02/07 01:19:26;;;;;;;7.23;2.13;;;7.90;99.90;;;;;;4426064;28;656729;-72
2024/02/07 01:22:13;;;;;;;4.23;1.70;;;8.00;99.90;;;;;;4409837;28;656936;-73
2024/02/07 01:25:01;;;;;;;4.37;1.73;;;8.00;99.90;;;;;;4432260;28;656808;-73
2024/02/07 01:27:48;;;;;;;13.10;2.40;;;8.00;99.90;;;;;;4402623;28;656380;-74
2024/02/07 01:30:35;;;;;;;6.70;2.13;;;7.90;99.90;;;;;;4425976;28;658920;-75
2024/02/07 01:33:22;;;;;;;5.83;1.40;;;7.90;99.90;;;;;;4432608;28;656546;-73
2024/02/07 01:36:11;;;;;;;3.60;1.60;;;7.90;99.90;;;;;;4432022;28;657525;-73
2024/02/07 01:38:59;;;;;;;4.47;1.47;;;7.80;99.90;;;;;;4418392;28;656661;-74
2024/02/07 01:41:58;;;;;;;6.67;2.30;;;7.80;99.90;;;;;;4432773;28;656558;-74
2024/02/07 01:44:45;;;;;;;8.50;2.33;;;7.90;99.90;;;;;;4415495;28;656450;-75
2024/02/07 01:47:32;;;;;;;2.27;1.43;;;7.80;99.90;;;;;;4417197;28;656344;-74
2024/02/07 01:50:20;;;;;;;3.97;1.17;;;7.80;99.90;;;;;;4438759;28;657025;-74
2024/02/07 01:53:10;;;;;;;5.83;1.93;;;7.80;99.90;;;;;;4419412;28;656326;-74
2024/02/07 01:55:57;;;;;;;3.80;1.60;;;7.80;99.90;;;;;;4408442;28;656517;-73
2024/02/07 01:58:45;;;;;;;5.27;1.80;;;7.80;99.90;;;;;;4419840;28;657260;-73
2024/02/07 02:01:32;;;;;;;5.70;1.70;;;7.80;99.90;;;;;;4415662;28;656624;-74
2024/02/07 02:04:20;;;;;;;9.33;1.90;;;7.80;99.90;;;;;;4436396;28;656779;-73
2024/02/07 02:07:07;;;;;;;5.03;1.53;;;7.70;99.90;;;;;;4434712;28;656276;-73
2024/02/07 02:09:56;;;;;;;9.03;2.23;;;7.70;99.90;;;;;;4423130;28;656921;-73
2024/02/07 02:12:43;;;;;;;5.67;1.40;;;7.70;99.90;;;;;;4417585;28;657549;-73
2024/02/07 02:15:30;;;;;;;5.80;1.60;;;7.70;99.90;;;;;;4450453;28;656443;-72
2024/02/07 02:18:17;;;;;;;6.93;2.33;;;7.80;99.90;;;;;;4413420;28;656870;-73
2024/02/07 02:21:06;;;;;;;4.07;1.50;;;7.70;99.90;;;;;;4429265;28;656568;-73
2024/02/07 02:24:11;;;;;;;2.90;1.53;;;7.70;99.90;;;;;;4406079;28;656998;-73
2024/02/07 02:27:11;;;;;;;6.23;1.60;;;7.70;99.90;;;;;;4378808;28;657491;-74
2024/02/07 02:30:01;;;;;;;6.23;1.83;;;7.70;99.90;;;;;;4381516;28;656529;-73
2024/02/07 02:32:49;;;;;;;7.17;1.60;;;7.70;99.90;;;;;;4423496;28;656458;-74
2024/02/07 02:35:37;;;;;;;4.07;2.00;;;7.70;99.90;;;;;;4432093;28;656721;-73
2024/02/07 02:38:25;;;;;;;1.97;1.10;;;7.70;99.90;;;;;;4410123;28;657194;-73
2024/02/07 02:41:14;;;;;;;7.77;1.40;;;7.60;99.90;;;;;;4430848;28;656300;-74
2024/02/07 02:44:01;;;;;;;8.33;1.27;;;7.60;99.90;;;;;;4447217;28;657176;-73
2024/02/07 02:46:50;;;;;;;2.60;1.53;;;7.70;99.90;;;;;;4419161;28;657019;-74
2024/02/07 02:49:37;;;;;;;3.03;1.40;;;7.60;99.90;;;;;;4436442;28;656752;-75
2024/02/07 02:52:27;;;;;;;4.37;1.40;;;7.70;99.90;;;;;;4440995;28;657887;-73
2024/02/07 02:55:14;;;;;;;3.50;1.23;;;7.70;99.90;;;;;;4408579;28;656108;-73
2024/02/07 02:58:01;;;;;;;5.97;2.00;;;7.70;99.90;;;;;;4420858;28;656229;-74
2024/02/07 03:00:50;;;;;;;7.70;2.30;;;7.70;99.90;;;;;;4393551;28;656878;-74
2024/02/07 03:03:41;;;;;;;7.67;1.73;;;7.70;99.90;;;;;;4402661;28;656768;-74
2024/02/07 03:06:39;;;;;;;3.30;1.80;;;7.70;99.90;;;;;;4419103;28;658242;-73
2024/02/07 03:09:27;;;;;;;11.60;1.70;;;7.60;99.90;;;;;;4418320;28;656881;-74
2024/02/07 03:12:15;;;;;;;4.50;1.60;;;7.60;99.90;;;;;;4408115;28;658193;-75
2024/02/07 03:15:03;;;;;;;7.07;1.67;;;7.50;99.90;;;;;;4414881;28;656751;-75
2024/02/07 03:17:50;;;;;;;5.70;1.43;;;7.50;99.90;;;;;;4443640;28;657050;-74
2024/02/07 03:20:39;;;;;;;4.47;1.97;;;7.50;99.90;;;;;;4436454;28;657219;-73
2024/02/07 03:23:28;;;;;;;2.43;1.10;;;7.50;99.90;;;;;;4437379;28;656923;-73
2024/02/07 03:26:15;;;;;;;3.93;1.70;;;7.50;99.90;;;;;;4396744;28;657282;-74
2024/02/07 03:29:02;;;;;;;2.53;0.87;;;7.40;99.90;;;;;;4433889;28;656803;-74
2024/02/07 03:31:50;;;;;;;5.60;1.60;;;7.40;99.90;;;;;;4434850;28;656920;-73
2024/02/07 03:34:37;;;;;;;6.77;1.67;;;7.50;99.90;;;;;;4419783;28;656674;-74
2024/02/07 03:37:26;;;;;;;13.68;1.27;;;7.50;99.90;;;;;;4400000;28;657207;-75
2024/02/07 03:40:14;;;;;;;1.33;0.80;;;7.50;99.90;;;;;;4395732;28;657648;-73
2024/02/07 03:43:01;;;;;;;6.33;1.90;;;7.60;99.90;;;;;;4424211;28;656622;-74
2024/02/07 03:45:49;;;;;;;8.33;2.00;;;7.60;99.90;;;;;;4392527;28;656635;-74
2024/02/07 03:48:37;;;;;;;3.40;1.40;;;7.60;99.90;;;;;;4430470;28;656410;-73
2024/02/07 03:51:27;;;;;;;2.27;1.00;;;7.50;99.90;;;;;;4408685;28;657423;-74
2024/02/07 03:54:15;;;;;;;5.73;1.50;;;7.50;99.90;;;;;;4418215;28;656811;-75
2024/02/07 03:57:04;;;;;;;4.23;1.67;;;7.50;99.90;;;;;;4412849;28;657226;-73
2024/02/07 03:59:51;;;;;;;5.33;1.43;;;7.40;99.90;;;;;;4430148;28;656147;-74
2024/02/07 04:02:39;;;;;;;17.13;2.20;;;7.40;99.90;;;;;;4410625;28;657113;-73
2024/02/07 04:05:26;;;;;;;1.67;0.80;;;7.40;99.90;;;;;;4437650;28;658606;-74
2024/02/07 04:08:14;;;;;;;6.73;0.90;;;7.50;99.90;;;;;;4416699;28;656605;-74
2024/02/07 04:11:07;;;;;;;0.97;0.80;;;7.40;99.90;;;;;;4429450;28;656216;-74
2024/02/07 05:17:59;;;;;;;7.50;1.80;;;7.20;99.90;;;;;;4445711;28;657257;-74
2024/02/07 05:20:48;;;;;;;6.53;1.92;;;7.30;99.90;;;;;;4416354;28;656763;-75
2024/02/07 05:23:35;;;;;;;5.87;1.43;;;7.20;99.90;;;;;;4423127;28;657067;-73
2024/02/07 05:26:23;;;;;;;3.23;1.43;;;7.30;99.90;;;;;;4412642;28;657539;-75
2024/02/07 05:29:15;;;;;;;3.53;1.17;;;7.30;99.90;;;;;;4432264;28;657205;-74
2024/02/07 05:32:04;;;;;;;4.53;1.00;;;7.30;99.90;;;;;;4393294;28;656552;-74
2024/02/07 05:34:51;;;;;;;3.35;1.02;;;7.20;99.90;;;;;;4440050;28;656426;-75
2024/02/07 05:37:39;;;;;;;7.27;1.60;;;7.20;99.90;;;;;;4413033;28;656702;-75
2024/02/07 05:40:26;;;;;;;3.50;1.53;;;7.20;99.90;;;;;;4436742;28;657248;-74
2024/02/07 05:43:13;;;;;;;7.53;1.87;;;7.20;99.90;;;;;;4409182;28;656883;-75
2024/02/07 05:46:00;;;;;;;4.27;1.80;;;7.10;99.90;;;;;;4418678;28;657265;-73
2024/02/07 05:48:49;;;;;;;6.63;1.70;;;7.10;99.90;;;;;;4420713;28;656352;-74
2024/02/07 05:51:36;;;;;;;10.47;1.67;;;7.10;99.90;;;;;;4441278;28;656498;-73
2024/02/07 05:54:24;;;;;;;7.20;1.13;;;7.20;99.90;;;;;;4418749;28;657296;-73
2024/02/07 05:57:11;;;;;;;2.90;1.70;;;7.20;99.90;;;;;;4435931;28;657118;-73
2024/02/07 05:59:58;;;;;;;4.57;1.00;;;7.20;99.90;;;;;;4420021;28;656623;-73
2024/02/07 06:02:45;;;;;;;5.77;2.20;;;7.20;99.90;;;;;;4426385;28;656947;-73
2024/02/07 06:05:34;;;;;;;5.00;1.00;;;7.20;99.90;;;;;;4414105;28;656750;-73
2024/02/07 06:08:21;;;;;;;6.63;1.73;;;7.20;99.90;;;;;;4447621;28;657249;-73
2024/02/07 06:11:08;;;;;;;7.67;2.27;;;7.20;99.90;;;;;;4424118;28;656445;-72
2024/02/07 06:13:55;;;;;;;3.23;1.40;;;7.20;99.90;;;;;;4437764;28;657336;-73
2024/02/07 06:16:43;;;;;;;4.67;2.30;;;7.20;99.90;;;;;;4408475;28;656256;-73
2024/02/07 06:19:30;;;;;;;3.37;1.50;;;7.20;99.90;;;;;;4435373;28;656621;-73
2024/02/07 06:22:19;;;;;;;4.27;1.53;;;7.20;99.90;;;;;;4421166;28;656862;-71
2024/02/07 06:25:06;;;;;;;4.13;1.73;;;7.20;99.90;;;;;;4439092;28;656350;-72
2024/02/07 06:27:54;;;;;;;5.83;1.80;;;7.20;99.90;;;;;;4419896;28;656324;-73
2024/02/07 06:30:41;;;;;;;5.50;1.93;;;7.20;99.90;;;;;;4416148;28;656679;-73
2024/02/07 06:33:28;;;;;;;4.33;1.80;;;7.20;99.90;;;;;;4409424;28;656816;-73
2024/02/07 06:36:15;;;;;;;4.17;1.30;;;7.20;99.90;;;;;;4428216;28;656517;-73
2024/02/07 06:39:04;;;;;;;3.97;1.55;;;7.20;99.90;;;;;;4426835;28;656335;-73
2024/02/07 06:41:51;;;;;;;3.07;1.73;;;7.20;99.90;;;;;;4431912;28;656530;-72
2024/02/07 06:44:38;;;;;;;4.50;1.87;;;7.20;99.90;;;;;;4417076;28;656527;-73
2024/02/07 06:47:26;;;;;;;5.90;1.60;;;7.20;99.90;;;;;;4442864;28;657496;-73
2024/02/07 06:50:13;;;;;;;3.73;1.40;;;7.30;99.90;;;;;;4424698;28;656944;-73
2024/02/07 06:53:00;;;;;;;4.33;1.30;;;7.30;99.90;;;;;;4430689;28;656770;-73
2024/02/07 06:55:50;;;;;;;2.40;1.30;;;7.30;99.90;;;;;;4429775;28;657243;-73
2024/02/07 06:58:37;;;;;;;6.07;1.90;;;7.30;99.90;;;;;;4425860;28;656680;-73
2024/02/07 07:01:26;;;;;;;3.20;1.07;;;7.40;99.90;;;;;;4443746;28;656716;-74
2024/02/07 07:04:13;;;;;;;6.13;1.60;;;7.50;99.90;;;;;;4420057;28;656399;-74
2024/02/07 07:07:01;;;;;;;8.97;1.93;;;7.50;99.90;;;;;;4436747;28;656909;-74
2024/02/07 07:09:48;;;;;;;4.07;1.60;;;7.50;99.90;;;;;;4414757;28;656392;-74
2024/02/07 07:12:36;;;;;;;6.50;2.23;;;7.50;99.90;;;;;;4428933;28;657178;-74
2024/02/07 07:15:24;;;;;;;3.77;1.70;;;7.50;99.90;;;;;;4414281;28;656917;-73
2024/02/07 07:18:11;;;;;;;3.13;1.20;;;7.60;99.90;;;;;;4435615;28;657270;-72
2024/02/07 07:20:58;;;;;;;7.97;1.77;;;7.60;99.90;;;;;;4408329;28;656944;-73
2024/02/07 07:23:45;;;;;;;4.40;1.80;;;7.60;99.90;;;;;;4435111;28;656897;-72
2024/02/07 07:26:32;;;;;;;4.45;1.50;;;7.60;99.90;;;;;;4424303;28;657256;-74
2024/02/07 07:29:21;;;;;;;6.37;1.90;;;7.60;99.90;;;;;;4427542;28;656779;-73
2024/02/07 07:32:09;;;;;;;4.70;1.90;;;7.60;99.90;;;;;;4423113;28;656990;-74
2024/02/07 07:34:56;;;;;;;8.53;1.73;;;7.60;99.90;;;;;;4428895;28;657335;-73
2024/02/07 07:37:43;;;;;;;8.30;1.87;;;7.50;99.90;;;;;;4405406;28;656204;-73
2024/02/07 07:40:31;;;;;;;4.70;1.83;;;7.50;99.90;;;;;;4432390;28;656752;-73
2024/02/07 07:43:19;;;;;;;4.47;1.63;;;7.50;99.90;;;;;;4413389;28;656286;-74
2024/02/07 07:46:08;;;;;;;6.23;1.80;;;7.50;99.90;;;;;;4433691;28;657457;-74
2024/02/07 07:48:55;;;;;;;5.93;1.70;;;7.50;99.90;;;;;;4411750;28;656859;-74
2024/02/07 07:51:42;;;;;;;3.60;1.50;;;7.50;99.90;;;;;;4417009;28;656552;-73
2024/02/07 07:54:30;;;;;;;5.82;2.05;;;7.50;99.90;;;;;;4441980;28;657039;-74
2024/02/07 07:57:17;;;;;;;2.77;1.17;;;7.50;99.90;;;;;;4435328;28;655815;-74
2024/02/07 08:00:05;;;;;;;9.23;1.67;;;7.50;99.90;;;;;;4411938;28;657118;-72
2024/02/07 08:02:54;;;;;;;8.20;3.60;;;7.50;99.90;;;;;;4427818;28;656922;-72
2024/02/07 08:05:41;;;;;;;6.03;2.10;;;7.50;99.90;;;;;;4435205;28;656523;-72
2024/02/07 08:08:28;;;;;;;6.87;1.83;;;7.50;99.90;;;;;;4410142;28;656770;-72
2024/02/07 08:11:16;;;;;;;5.77;1.93;;;7.40;99.90;;;;;;4435092;28;657673;-72
2024/02/07 08:14:03;;;;;;;1.83;1.27;;;7.40;99.90;;;;;;4410546;28;657027;-74
2024/02/07 08:16:50;;;;;;;7.63;2.07;;;7.40;99.90;;;;;;4429219;28;657399;-72
2024/02/07 08:19:39;;;;;;;7.53;2.13;;;7.40;99.90;;;;;;4431718;28;656616;-73
2024/02/07 08:22:26;;;;;;;4.73;1.67;;;7.50;99.90;;;;;;4434669;28;656935;-73
2024/02/07 08:25:13;;;;;;;4.13;1.33;;;7.50;99.90;;;;;;4405154;28;656591;-71
2024/02/07 08:28:01;;;;;;;4.72;2.00;;;7.40;99.90;;;;;;4419464;28;657218;-72
2024/02/07 08:30:48;;;;;;;4.27;2.27;;;7.50;99.90;;;;;;4399636;28;656571;-72
2024/02/07 08:33:35;;;;;;;3.57;1.77;;;7.60;99.90;;;;;;4426304;28;657154;-71
2024/02/07 08:36:24;;;;;;;4.90;2.00;;;7.50;99.90;;;;;;4410468;28;656619;-70
2024/02/07 08:39:11;;;;;;;5.23;1.60;;;7.50;99.90;;;;;;4413233;28;656311;-72
2024/02/07 08:41:59;;;;;;;4.13;1.57;;;7.30;99.90;;;;;;4408896;28;656648;-71
2024/02/07 08:44:46;;;;;;;2.90;1.40;;;7.30;99.90;;;;;;4435779;28;657226;-71
2024/02/07 08:47:33;;;;;;;3.03;1.60;;;7.20;99.90;;;;;;4410370;28;656578;-71
2024/02/07 08:50:20;;;;;;;2.97;1.27;;;7.20;99.90;;;;;;4428238;28;657124;-72
2024/02/07 08:53:09;;;;;;;3.33;1.30;;;7.20;99.90;;;;;;4407896;28;656780;-71
2024/02/07 08:55:57;;;;;;;4.00;1.67;;;7.30;99.90;;;;;;4433516;28;656271;-72
2024/02/07 08:58:44;;;;;;;4.77;2.00;;;7.20;99.90;;;;;;4414796;28;656763;-72
2024/02/07 09:01:31;;;;;;;2.00;1.00;;;7.20;99.90;;;;;;4434662;28;655808;-71
2024/02/07 09:04:18;;;;;;;5.40;2.00;;;7.20;99.90;;;;;;4414836;28;656879;-72
2024/02/07 09:07:05;;;;;;;6.00;2.37;;;7.20;99.90;;;;;;4425070;28;656777;-72
2024/02/07 09:09:54;;;;;;;5.77;2.30;;;7.20;99.90;;;;;;4404426;28;656666;-72
2024/02/07 09:12:41;;;;;;;6.13;1.87;;;7.20;99.90;;;;;;4433763;28;656080;-71
2024/02/07 09:15:28;;;;;;;3.83;1.47;;;7.30;99.90;;;;;;4414868;28;656346;-72
2024/02/07 09:18:15;;;;;;;5.80;2.13;;;7.30;99.90;;;;;;4421420;28;657862;-71
2024/02/07 09:21:03;;;;;;;6.27;1.73;;;7.30;99.90;;;;;;4410484;28;656746;-72
2024/02/07 09:23:50;;;;;;;5.10;1.97;;;7.40;99.90;;;;;;4434742;28;657809;-72
2024/02/07 09:26:39;;;;;;;5.67;1.93;;;7.30;99.90;;;;;;4431626;28;656856;-71
2024/02/07 09:29:27;;;;;;;9.27;1.70;;;7.30;99.90;;;;;;4436859;28;656969;-71
2024/02/07 09:32:14;;;;;;;3.13;1.43;;;7.20;99.90;;;;;;4407021;28;657283;-72
2024/02/07 09:35:03;;;;;;;4.00;1.70;;;7.30;99.90;;;;;;4439759;28;656721;-71
2024/02/07 09:37:50;;;;;;;4.13;1.60;;;7.20;99.90;;;;;;4400612;28;656682;-71
2024/02/07 09:40:37;;;;;;;1.77;1.03;;;7.30;99.90;;;;;;4420378;28;656768;-71
2024/02/07 09:43:26;;;;;;;13.37;1.57;;;7.20;99.90;;;;;;4435591;28;657357;-70
2024/02/07 09:46:13;;;;;;;4.97;1.90;;;7.20;99.90;;;;;;4416424;28;657570;-71
2024/02/07 09:49:01;;;;;;;4.57;1.80;;;7.00;99.90;;;;;;4431913;28;657687;-71
2024/02/07 09:51:48;;;;;;;6.63;1.40;;;7.10;99.90;;;;;;4412805;28;656470;-72
2024/02/07 09:54:35;;;;;;;3.33;1.50;;;7.10;99.90;;;;;;4431913;28;657182;-71
2024/02/07 09:57:23;;;;;;;5.10;2.40;;;7.20;99.90;;;;;;4423354;28;656861;-71
2024/02/07 10:00:12;;;;;;;4.13;1.90;;;7.30;99.90;;;;;;4439584;28;656980;-71
2024/02/07 10:03:00;;;;;;;5.07;2.03;;;7.30;99.90;;;;;;4410038;28;657075;-71
2024/02/07 10:05:50;;;;;;;5.97;1.20;;;7.40;99.90;;;;;;4427021;28;658071;-71
2024/02/07 10:08:37;;;;;;;4.60;1.60;;;7.40;99.90;;;;;;4434190;28;655948;-71
2024/02/07 10:11:24;;;;;;;3.73;1.50;;;7.50;99.90;;;;;;4417105;28;656683;-71
2024/02/07 10:14:11;;;;;;;6.70;3.37;;;7.50;99.90;;;;;;4432088;28;656233;-71
2024/02/07 10:17:00;;;;;;;6.67;1.87;;;7.50;99.90;;;;;;4407730;28;656664;-71
2024/02/07 10:19:47;;;;;;;5.07;1.93;;;7.50;99.90;;;;;;4414523;28;656777;-71
2024/02/07 10:22:38;;;;;;;6.80;1.93;;;7.60;99.90;;;;;;4438725;28;657705;-71
2024/02/07 10:25:25;;;;;;;5.13;2.03;;;7.60;99.90;;;;;;4418790;28;656517;-70
2024/02/07 10:28:13;;;;;;;3.20;1.63;;;7.70;99.90;;;;;;4417162;28;656336;-71
2024/02/07 10:31:00;;;;;;;4.47;1.90;;;7.70;99.90;;;;;;4438868;28;657113;-71
2024/02/07 10:33:50;;;;;;;3.97;1.53;;;7.70;99.90;;;;;;4400581;28;657057;-71
2024/02/07 10:36:37;;;;;;;5.60;1.60;;;7.80;99.90;;;;;;4421716;28;656387;-71
2024/02/07 10:39:25;;;;;;;6.93;2.20;;;7.70;99.90;;;;;;4439299;28;656732;-71
2024/02/07 10:42:12;;;;;;;2.10;1.20;;;7.70;99.90;;;;;;4429925;28;656635;-71
2024/02/07 10:45:06;;;;;;;7.13;2.13;;;7.80;99.90;;;;;;4419652;28;657256;-71
2024/02/07 10:47:53;;;;;;;8.97;1.80;;;7.80;99.90;;;;;;4384855;28;657550;-71
2024/02/07 10:50:42;;;;;;;5.93;2.30;;;7.80;99.90;;;;;;4438728;28;657597;-71
2024/02/07 10:53:29;;;;;;;4.17;1.37;;;7.80;99.90;;;;;;4413979;28;656415;-71
2024/02/07 10:56:18;;;;;;;4.70;1.60;;;7.90;99.90;;;;;;4417892;28;656123;-73
2024/02/07 10:59:05;;;;;;;7.43;2.00;;;7.90;99.90;;;;;;4424025;28;656892;-71
2024/02/07 11:01:52;;;;;;;4.23;1.57;;;7.90;99.90;;;;;;4417235;28;656473;-73
2024/02/07 11:04:40;;;;;;;6.57;2.10;;;8.00;99.90;;;;;;4436243;28;657769;-71
2024/02/07 11:07:28;;;;;;;5.87;1.77;;;8.00;99.90;;;;;;4436347;28;656140;-72
2024/02/07 11:10:15;;;;;;;3.93;1.80;;;8.00;99.90;;;;;;4409218;28;656717;-71
2024/02/07 11:13:03;;;;;;;5.63;1.77;;;8.10;99.90;;;;;;4413859;28;656756;-72
2024/02/07 11:15:50;;;;;;;5.93;2.50;;;8.10;99.90;;;;;;4431580;28;656787;-72
2024/02/07 11:18:37;;;;;;;5.07;2.23;;;8.10;99.90;;;;;;4435957;28;656371;-72
2024/02/07 11:21:27;;;;;;;8.10;2.60;;;8.20;99.90;;;;;;4440144;28;656680;-74
2024/02/07 11:24:21;;;;;;;3.63;1.73;;;8.10;99.90;;;;;;4417413;28;657961;-71
2024/02/07 11:27:08;;;;;;;5.13;1.23;;;8.20;99.90;;;;;;4389469;28;656495;-71
2024/02/07 11:29:55;;;;;;;3.63;2.03;;;8.10;99.90;;;;;;4438241;28;657399;-71
2024/02/07 11:32:42;;;;;;;2.27;1.37;;;8.10;99.90;;;;;;4414910;28;656818;-73
2024/02/07 11:35:32;;;;;;;4.93;1.67;;;8.10;99.90;;;;;;4440027;28;656868;-73
2024/02/07 11:38:20;;;;;;;4.23;1.70;;;8.10;99.90;;;;;;4419036;28;657193;-72
2024/02/07 11:41:09;;;;;;;8.47;1.07;;;8.10;99.90;;;;;;4424697;28;657159;-71
2024/02/07 11:44:04;;;;;;;5.60;2.23;;;8.10;99.90;;;;;;4415868;28;656587;-72
2024/02/07 11:46:53;;;;;;;8.10;2.10;;;8.20;99.90;;;;;;4418830;28;656763;-72
2024/02/07 11:49:41;;;;;;;5.30;2.30;;;8.10;99.90;;;;;;4412903;28;656812;-73
2024/02/07 11:52:29;;;;;;;6.33;1.70;;;8.10;99.90;;;;;;4418657;28;656423;-73
2024/02/07 11:55:17;;;;;;;4.87;1.33;;;8.20;99.90;;;;;;4439744;28;656653;-72
2024/02/07 11:58:07;;;;;;;5.17;2.00;;;8.20;99.90;;;;;;4419237;28;657420;-72
2024/02/07 12:00:55;;;;;;;4.47;2.07;;;8.20;99.90;;;;;;4409774;28;656992;-72
2024/02/07 12:03:42;;;;;;;7.47;2.37;;;8.20;99.90;;;;;;4422732;28;657021;-72
2024/02/07 12:06:29;;;;;;;3.70;1.30;;;8.20;99.90;;;;;;4419061;28;656860;-72
2024/02/07 12:09:16;;;;;;;7.80;3.03;;;8.20;99.90;;;;;;4429979;28;656783;-73
2024/02/07 12:12:06;;;;;;;3.83;1.93;;;8.20;99.90;;;;;;4418294;28;657022;-73
2024/02/07 12:14:54;;;;;;;5.57;2.10;;;8.30;99.90;;;;;;4417285;28;656708;-74
2024/02/07 12:17:42;;;;;;;8.80;1.90;;;8.30;99.90;;;;;;4433522;28;656905;-73
2024/02/07 12:20:30;;;;;;;2.70;1.37;;;8.30;99.90;;;;;;4423061;28;656753;-72
2024/02/07 12:23:18;;;;;;;5.13;1.87;;;8.30;99.90;;;;;;4430260;28;656593;-73
2024/02/07 12:26:05;;;;;;;4.88;1.92;;;8.30;99.90;;;;;;4401298;28;657151;-72
2024/02/07 12:28:55;;;;;;;5.63;1.70;;;8.30;99.90;;;;;;4425220;28;657154;-73
2024/02/07 12:31:44;;;;;;;8.40;2.60;;;8.30;99.90;;;;;;4409220;28;656361;-72
2024/02/07 12:34:31;;;;;;;12.60;2.13;;;8.30;99.90;;;;;;4436172;28;656486;-74
2024/02/07 12:37:19;;;;;;;4.57;2.07;;;8.30;99.90;;;;;;4417247;28;657684;-72
2024/02/07 12:40:11;;;;;;;5.60;1.90;;;8.30;99.90;;;;;;4443349;28;656388;-73
2024/02/07 12:42:58;;;;;;;4.23;2.27;;;8.30;99.90;;;;;;4403912;28;656669;-72
2024/02/07 12:45:50;;;;;;;8.90;1.80;;;8.30;99.90;;;;;;4434036;28;657797;-72
2024/02/07 12:48:39;;;;;;;6.17;2.03;;;8.30;99.90;;;;;;4400766;28;656851;-72
2024/02/07 12:51:26;;;;;;;8.30;2.63;;;8.30;99.90;;;;;;4434163;28;656383;-74
2024/02/07 12:54:13;;;;;;;6.83;2.20;;;8.30;99.90;;;;;;4419771;28;657574;-72
2024/02/07 12:57:00;;;;;;;5.77;2.47;;;8.30;99.90;;;;;;4439491;28;657590;-72
2024/02/07 12:59:48;;;;;;;6.00;1.83;;;8.30;99.90;;;;;;4409483;28;656942;-72
2024/02/07 13:02:35;;;;;;;6.90;2.17;;;8.40;99.90;;;;;;4432901;28;657162;-74
2024/02/07 13:05:24;;;;;;;5.97;2.20;;;8.50;99.90;;;;;;4436876;28;656895;-74
2024/02/07 13:08:11;;;;;;;10.70;2.30;;;8.50;99.90;;;;;;4449624;28;656191;-74
2024/02/07 13:10:58;;;;;;;8.20;2.37;;;8.50;99.90;;;;;;4417643;28;657863;-74
2024/02/07 13:13:46;;;;;;;6.43;1.87;;;8.50;99.90;;;;;;4443723;28;657727;-72
2024/02/07 13:16:33;;;;;;;5.33;2.50;;;8.50;99.90;;;;;;4419198;28;656829;-74
2024/02/07 13:19:21;;;;;;;4.63;1.77;;;8.50;99.90;;;;;;4439102;28;656359;-73
2024/02/07 13:22:13;;;;;;;5.27;1.77;;;8.60;99.90;;;;;;4418385;28;657851;-72
2024/02/07 13:25:01;;;;;;;12.00;2.87;;;8.50;99.90;;;;;;4416990;28;656726;-71
2024/02/07 13:27:48;;;;;;;5.53;1.93;;;8.50;99.90;;;;;;4423933;28;657608;-72
2024/02/07 13:30:35;;;;;;;7.20;1.13;;;8.60;99.90;;;;;;4434388;28;656972;-72
2024/02/07 13:33:23;;;;;;;3.70;1.63;;;8.50;99.90;;;;;;4415336;28;656208;-73
2024/02/07 13:36:10;;;;;;;5.20;2.23;;;8.50;99.90;;;;;;4436290;28;657940;-73
2024/02/07 13:38:59;;;;;;;3.67;1.57;;;8.60;99.90;;;;;;4427802;28;657329;-72
2024/02/07 13:41:46;;;;;;;5.10;1.27;;;8.60;99.90;;;;;;4435818;28;656556;-72
2024/02/07 13:44:34;;;;;;;4.73;2.10;;;8.60;99.90;;;;;;4417196;28;657205;-72
2024/02/07 13:47:52;;;;;;;7.03;2.10;;;8.60;99.90;;;;;;4431635;28;656649;-72
2024/02/07 13:50:39;;;;;;;6.53;2.07;;;8.60;99.90;;;;;;4382598;28;657308;-71
2024/02/07 13:53:26;;;;;;;7.83;2.23;;;8.50;99.90;;;;;;4440553;28;656644;-72
2024/02/07 13:56:15;;;;;;;7.73;2.20;;;8.50;99.90;;;;;;4413394;28;656230;-71
2024/02/07 13:59:02;;;;;;;6.27;1.80;;;8.40;99.90;;;;;;4429251;28;656893;-71
2024/02/07 14:01:50;;;;;;;6.20;1.58;;;8.30;99.90;;;;;;4441981;28;657140;-70
2024/02/07 14:04:37;;;;;;;6.47;2.73;;;8.10;99.90;;;;;;4432410;28;656049;-71
2024/02/07 14:07:25;;;;;;;11.27;3.40;;;7.80;99.90;;;;;;4418754;28;656759;-69
2024/02/07 14:10:13;;;;;;;7.77;3.10;;;7.60;99.90;;;;;;4429999;28;658263;-69
2024/02/07 14:13:02;;;;;;;4.47;2.80;;;6.50;99.90;;;;;;4439908;28;657447;-69
2024/02/07 14:15:50;;;;;;;4.03;2.20;;;6.00;99.90;;;;;;4410797;28;657350;-69
2024/02/07 14:18:37;;;;;;;4.87;2.33;;;5.50;99.90;;;;;;4421668;28;656799;-70
2024/02/07 14:21:24;;;;;;;5.60;2.28;;;5.20;99.90;;;;;;4440330;28;656590;-69
2024/02/07 14:24:12;;;;;;;5.83;3.07;;;4.90;99.90;;;;;;4423335;28;656309;-70
2024/02/07 14:26:59;;;;;;;5.13;2.60;;;4.90;99.90;;;;;;4416635;28;656348;-70
2024/02/07 14:29:47;;;;;;;3.87;1.80;;;4.80;99.90;;;;;;4420418;28;656941;-70
2024/02/07 14:32:34;;;;;;;3.10;1.90;;;4.70;99.90;;;;;;4419540;28;657035;-70
2024/02/07 14:35:22;;;;;;;5.43;2.20;;;4.60;99.90;;;;;;4433229;28;656773;-70
2024/02/07 14:38:09;;;;;;;5.73;2.00;;;4.50;99.90;;;;;;4418930;28;657288;-70
2024/02/07 14:40:57;;;;;;;3.63;2.00;;;4.40;99.90;;;;;;4439649;28;656018;-70
2024/02/07 14:43:44;;;;;;;4.37;2.43;;;4.30;99.90;;;;;;4417202;28;657398;-70
2024/02/07 14:46:33;;;;;;;3.53;2.13;;;4.20;99.90;;;;;;4429503;28;657050;-71
2024/02/07 14:49:20;;;;;;;4.30;1.60;;;4.20;99.90;;;;;;4410777;28;656535;-70
2024/02/07 14:52:08;;;;;;;2.80;1.60;;;4.20;99.90;;;;;;4425040;28;657038;-70
2024/02/07 14:54:55;;;;;;;4.13;2.57;;;4.10;99.90;;;;;;4443466;28;657915;-70
2024/02/07 14:57:42;;;;;;;4.43;2.77;;;4.00;99.90;;;;;;4419676;28;657159;-70
2024/02/07 15:00:30;;;;;;;5.63;2.60;;;4.00;99.90;;;;;;4439502;28;656935;-70
2024/02/07 15:03:19;;;;;;;4.53;2.43;;;3.90;99.90;;;;;;4429584;28;656695;-70
2024/02/07 15:06:06;;;;;;;5.07;2.07;;;3.90;99.90;;;;;;4440362;28;656910;-70
2024/02/07 15:08:53;;;;;;;4.10;2.50;;;3.80;99.90;;;;;;4416012;28;657079;-70
2024/02/07 15:11:40;;;;;;;2.57;1.70;;;3.70;99.90;;;;;;4440136;28;657581;-71
2024/02/07 15:14:28;;;;;;;3.10;1.57;;;3.60;99.90;;;;;;4410825;28;656431;-70
2024/02/07 15:17:15;;;;;;;2.73;1.53;;;3.60;99.90;;;;;;4437592;28;657377;-70
2024/02/07 15:20:05;;;;;;;4.80;2.00;;;3.50;99.90;;;;;;4428145;28;656541;-70
2024/02/07 15:22:52;;;;;;;4.97;2.00;;;3.40;99.90;;;;;;4435902;28;656746;-70
2024/02/07 15:25:40;;;;;;;5.63;2.73;;;3.40;99.90;;;;;;4435549;28;657583;-70
2024/02/07 15:28:28;;;;;;;5.43;2.90;;;3.30;99.90;;;;;;4415089;28;656575;-70
2024/02/07 15:31:15;;;;;;;5.73;2.70;;;3.30;99.90;;;;;;4424316;28;657581;-70
2024/02/07 15:34:02;;;;;;;4.43;1.40;;;3.30;99.90;;;;;;4435046;28;656529;-70
2024/02/07 15:36:51;;;;;;;5.60;2.83;;;3.30;99.90;;;;;;4432363;28;658065;-71